createdAt,value
2022-10-30T00:01:02.136Z,7.03
2022-10-30T00:03:28.806Z,6.28
2022-10-30T00:05:55.346Z,6.63
2022-10-30T00:08:25.410Z,5.93
2022-10-30T00:10:51.900Z,6.00
2022-10-30T00:13:18.986Z,6.38
2022-10-30T00:15:52.700Z,6.50
2022-10-30T00:18:20.518Z,6.72
2022-10-30T00:20:47.719Z,6.70
2022-10-30T00:23:14.617Z,6.25
2022-10-30T00:25:41.152Z,6.35
2022-10-30T00:28:08.174Z,7.10
2022-10-30T00:30:35.558Z,5.95
2022-10-30T00:33:02.279Z,6.35
2022-10-30T00:35:28.854Z,6.82
2022-10-30T00:37:55.659Z,7.15
2022-10-30T00:40:22.695Z,6.43
2022-10-30T00:42:49.174Z,7.15
2022-10-30T00:45:17.039Z,6.45
2022-10-30T00:47:46.841Z,6.93
2022-10-30T00:50:21.001Z,6.53
2022-10-30T00:53:08.414Z,6.45
2022-10-30T00:55:57.894Z,7.80
2022-10-30T00:58:28.545Z,7.10
2022-10-30T01:00:57.331Z,7.45
2022-10-30T01:03:24.888Z,6.53
2022-10-30T01:05:54.781Z,7.00
2022-10-30T01:08:21.415Z,6.38
2022-10-30T01:10:48.352Z,7.28
2022-10-30T01:13:15.880Z,7.53
2022-10-30T01:16:05.374Z,8.27
2022-10-30T01:18:58.902Z,7.63
2022-10-30T01:21:38.593Z,6.97
2022-10-30T01:24:25.204Z,7.25
2022-10-30T01:27:29.180Z,7.00
2022-10-30T01:30:20.636Z,8.13
2022-10-30T01:33:03.462Z,7.68
2022-10-30T01:36:19.308Z,8.30
2022-10-30T01:38:55.586Z,7.97
2022-10-30T01:41:22.311Z,8.02
2022-10-30T01:43:51.836Z,8.25
2022-10-30T01:47:01.460Z,7.55
2022-10-30T01:49:34.942Z,8.57
2022-10-30T01:52:25.315Z,8.05
2022-10-30T01:55:05.616Z,7.72
2022-10-30T01:57:38.457Z,7.72
2022-10-30T02:00:28.260Z,8.43
2022-10-30T02:02:55.181Z,8.25
2022-10-30T02:05:30.492Z,9.35
2022-10-30T02:07:57.533Z,8.57
2022-10-30T02:10:26.013Z,9.00
2022-10-30T02:12:52.832Z,9.02
2022-10-30T02:15:21.224Z,8.13
2022-10-30T02:17:47.817Z,8.52
2022-10-30T02:20:17.928Z,8.60
2022-10-30T02:22:44.922Z,8.95
2022-10-30T02:25:11.483Z,8.55
2022-10-30T02:27:38.314Z,7.78
2022-10-30T02:30:05.497Z,8.60
2022-10-30T02:32:34.301Z,8.43
2022-10-30T02:35:00.932Z,9.38
2022-10-30T02:37:27.734Z,8.95
2022-10-30T02:39:54.212Z,9.63
2022-10-30T02:42:20.756Z,10.00
2022-10-30T02:44:47.357Z,8.57
2022-10-30T02:47:14.352Z,8.93
2022-10-30T02:49:40.893Z,8.15
2022-10-30T02:52:08.153Z,8.88
2022-10-30T02:54:35.715Z,9.55
2022-10-30T02:57:02.277Z,8.48
2022-10-30T02:59:29.616Z,10.73
2022-10-30T03:01:58.184Z,9.68
2022-10-30T03:04:25.007Z,9.63
2022-10-30T03:06:51.515Z,9.82
2022-10-30T03:09:18.015Z,9.68
2022-10-30T03:11:45.100Z,9.75
2022-10-30T03:14:12.038Z,8.90
2022-10-30T03:16:38.566Z,9.10
2022-10-30T03:19:05.570Z,9.02
2022-10-30T03:21:33.362Z,8.77
2022-10-30T03:23:59.865Z,9.43
2022-10-30T03:26:26.339Z,9.32
2022-10-30T03:29:02.617Z,9.00
2022-10-30T03:31:30.872Z,9.50
2022-10-30T03:34:27.589Z,9.23
2022-10-30T03:36:54.242Z,9.30
2022-10-30T03:39:21.282Z,8.73
2022-10-30T03:41:48.093Z,9.10
2022-10-30T03:44:15.022Z,10.07
2022-10-30T03:46:41.585Z,10.25
2022-10-30T03:49:37.291Z,10.07
2022-10-30T03:52:09.094Z,9.23
2022-10-30T03:54:35.592Z,10.35
2022-10-30T03:57:02.340Z,9.63
2022-10-30T03:59:36.132Z,10.20
2022-10-30T04:02:34.699Z,10.65
2022-10-30T04:05:01.493Z,10.82
2022-10-30T04:07:29.313Z,9.65
2022-10-30T04:09:55.840Z,10.25
2022-10-30T04:12:22.336Z,9.75
2022-10-30T04:14:48.847Z,9.52
2022-10-30T04:17:15.385Z,10.05
2022-10-30T04:19:41.996Z,9.95
2022-10-30T04:22:09.936Z,9.82
2022-10-30T04:24:39.504Z,10.32
2022-10-30T04:27:06.267Z,9.70
2022-10-30T04:29:32.806Z,9.98
2022-10-30T04:31:59.376Z,9.77
2022-10-30T04:34:26.070Z,9.75
2022-10-30T04:36:52.771Z,11.38
2022-10-30T04:39:19.376Z,10.00
2022-10-30T04:41:49.997Z,10.18
2022-10-30T04:44:23.084Z,10.10
2022-10-30T04:46:52.618Z,11.10
2022-10-30T04:49:19.140Z,11.15
2022-10-30T04:51:47.321Z,9.98
2022-10-30T04:54:13.898Z,10.55
2022-10-30T04:56:40.651Z,10.77
2022-10-30T04:59:07.597Z,10.48
2022-10-30T05:01:34.344Z,9.93
2022-10-30T05:04:02.802Z,10.70
2022-10-30T05:06:31.051Z,11.27
2022-10-30T05:08:57.928Z,11.27
2022-10-30T05:11:31.176Z,11.55
2022-10-30T05:13:57.983Z,11.43
2022-10-30T05:16:25.688Z,10.88
2022-10-30T05:18:53.711Z,12.52
2022-10-30T05:21:21.292Z,11.05
2022-10-30T05:23:47.912Z,11.05
2022-10-30T05:26:14.566Z,11.10
2022-10-30T05:28:42.491Z,10.98
2022-10-30T05:31:09.048Z,11.82
2022-10-30T05:33:54.133Z,11.20
2022-10-30T05:36:23.084Z,11.07
2022-10-30T05:38:50.200Z,12.13
2022-10-30T05:41:27.910Z,11.65
2022-10-30T05:43:54.441Z,10.60
2022-10-30T05:46:21.018Z,11.02
2022-10-30T05:48:47.584Z,9.93
2022-10-30T05:51:14.174Z,10.75
2022-10-30T05:53:48.690Z,9.55
2022-10-30T05:56:15.236Z,9.05
2022-10-30T05:58:43.416Z,9.93
2022-10-30T06:01:09.960Z,9.15
2022-10-30T06:03:41.212Z,9.60
2022-10-30T06:06:07.807Z,9.70
2022-10-30T06:08:35.149Z,11.13
2022-10-30T06:11:11.307Z,9.90
2022-10-30T06:13:40.806Z,10.68
2022-10-30T06:16:10.294Z,11.52
2022-10-30T06:18:55.709Z,10.45
2022-10-30T06:21:23.125Z,10.52
2022-10-30T06:23:58.825Z,11.90
2022-10-30T06:26:45.739Z,12.00
2022-10-30T06:29:13.963Z,11.52
2022-10-30T06:31:40.983Z,11.43
2022-10-30T06:34:07.500Z,12.02
2022-10-30T06:36:36.599Z,11.75
2022-10-30T06:39:04.228Z,13.45
2022-10-30T06:41:38.587Z,13.45
2022-10-30T06:44:18.844Z,12.32
2022-10-30T06:46:45.402Z,13.60
2022-10-30T06:49:11.885Z,12.50
2022-10-30T06:51:39.346Z,11.80
2022-10-30T06:54:05.889Z,10.85
2022-10-30T06:56:52.415Z,11.38
2022-10-30T06:59:37.383Z,12.80
2022-10-30T07:02:22.870Z,12.70
2022-10-30T07:04:56.688Z,12.52
2022-10-30T07:07:24.014Z,11.30
2022-10-30T07:09:50.774Z,11.40
2022-10-30T07:12:21.799Z,10.82
2022-10-30T07:14:57.639Z,10.93
2022-10-30T07:17:42.980Z,12.00
2022-10-30T07:20:18.285Z,11.02
2022-10-30T07:22:44.802Z,10.15
2022-10-30T07:25:11.463Z,9.98
2022-10-30T07:27:52.084Z,10.23
2022-10-30T07:30:34.315Z,9.60
2022-10-30T07:33:13.199Z,9.13
2022-10-30T07:35:54.904Z,8.88
2022-10-30T07:38:39.935Z,8.82
2022-10-30T07:41:21.622Z,9.45
2022-10-30T07:43:50.895Z,8.50
2022-10-30T07:46:40.704Z,9.25
2022-10-30T07:49:28.207Z,8.07
2022-10-30T07:52:01.794Z,8.07
2022-10-30T07:54:28.490Z,9.63
2022-10-30T07:56:58.876Z,8.77
2022-10-30T07:59:51.302Z,8.35
2022-10-30T08:02:37.905Z,9.32
2022-10-30T08:05:14.983Z,8.27
2022-10-30T08:08:01.121Z,7.45
2022-10-30T08:10:28.439Z,7.50
2022-10-30T08:12:55.174Z,7.70
2022-10-30T08:15:22.097Z,7.55
2022-10-30T08:17:49.443Z,7.75
2022-10-30T08:20:18.383Z,7.22
2022-10-30T08:22:52.454Z,7.85
2022-10-30T08:25:25.594Z,7.60
2022-10-30T08:27:54.898Z,7.70
2022-10-30T08:30:24.677Z,7.38
2022-10-30T08:33:05.920Z,7.43
2022-10-30T08:35:52.611Z,7.53
2022-10-30T08:38:19.688Z,7.68
2022-10-30T08:40:54.773Z,6.75
2022-10-30T08:43:25.468Z,8.40
2022-10-30T08:45:52.484Z,7.97
2022-10-30T08:48:21.265Z,7.50
2022-10-30T08:50:47.811Z,7.95
2022-10-30T08:53:20.835Z,7.95
2022-10-30T08:55:48.350Z,8.05
2022-10-30T08:58:41.101Z,7.97
2022-10-30T09:01:08.540Z,8.63
2022-10-30T09:03:58.092Z,6.97
2022-10-30T09:06:50.398Z,7.75
2022-10-30T09:09:42.103Z,8.50
2022-10-30T09:12:08.645Z,8.23
2022-10-30T09:14:40.952Z,7.50
2022-10-30T09:17:09.212Z,8.52
2022-10-30T09:19:37.951Z,8.27
2022-10-30T09:22:05.604Z,8.25
2022-10-30T09:24:36.077Z,8.10
2022-10-30T09:27:02.543Z,8.25
2022-10-30T09:29:35.546Z,7.82
2022-10-30T09:32:08.625Z,7.60
2022-10-30T09:34:40.933Z,7.78
2022-10-30T09:37:13.685Z,7.00
2022-10-30T09:39:44.135Z,7.23
2022-10-30T09:42:43.324Z,7.82
2022-10-30T09:45:45.856Z,7.80
2022-10-30T09:48:50.128Z,7.63
2022-10-30T09:51:22.162Z,7.40
2022-10-30T09:54:05.930Z,7.13
2022-10-30T09:56:44.752Z,7.57
2022-10-30T09:59:30.156Z,7.47
2022-10-30T10:02:03.700Z,8.30
2022-10-30T10:04:43.912Z,6.78
2022-10-30T10:07:26.442Z,6.47
2022-10-30T10:10:16.371Z,7.72
2022-10-30T10:13:03.936Z,6.55
2022-10-30T10:15:41.588Z,6.90
2022-10-30T10:18:25.926Z,6.72
2022-10-30T10:20:56.038Z,7.90
2022-10-30T10:23:31.881Z,6.55
2022-10-30T10:26:00.599Z,6.85
2022-10-30T10:28:40.854Z,6.60
2022-10-30T10:31:20.418Z,6.88
2022-10-30T10:33:57.792Z,7.03
2022-10-30T10:36:35.577Z,6.72
2022-10-30T10:39:12.108Z,7.13
2022-10-30T10:41:45.272Z,5.88
2022-10-30T10:44:20.622Z,6.28
2022-10-30T10:47:07.201Z,5.75
2022-10-30T10:50:00.391Z,6.25
2022-10-30T10:52:38.005Z,5.93
2022-10-30T10:55:09.003Z,6.25
2022-10-30T10:57:38.680Z,6.90
2022-10-30T11:00:15.840Z,5.85
2022-10-30T11:02:49.163Z,6.60
2022-10-30T11:05:25.731Z,5.80
2022-10-30T11:07:53.095Z,6.88
2022-10-30T11:10:20.851Z,5.95
2022-10-30T11:12:47.510Z,6.93
2022-10-30T11:15:21.766Z,6.28
2022-10-30T11:17:56.243Z,6.55
2022-10-30T11:20:29.310Z,5.60
2022-10-30T11:22:56.121Z,5.97
2022-10-30T11:25:27.030Z,5.72
2022-10-30T11:27:59.763Z,5.50
2022-10-30T11:30:28.807Z,6.72
2022-10-30T11:32:57.213Z,5.50
2022-10-30T11:35:24.518Z,6.72
2022-10-30T11:38:15.809Z,5.53
2022-10-30T11:40:47.575Z,5.70
2022-10-30T11:43:15.796Z,5.72
2022-10-30T11:45:43.048Z,6.10
2022-10-30T11:48:19.319Z,6.30
2022-10-30T11:50:47.985Z,5.72
2022-10-30T11:53:30.265Z,5.80
2022-10-30T11:55:58.083Z,5.57
2022-10-30T11:58:27.084Z,5.75
2022-10-30T12:01:23.235Z,5.60
2022-10-30T12:03:50.226Z,5.80
2022-10-30T12:06:22.514Z,5.43
2022-10-30T12:09:10.664Z,5.50
2022-10-30T12:11:38.477Z,5.78
2022-10-30T12:14:05.807Z,5.60
2022-10-30T12:16:33.020Z,5.65
2022-10-30T12:19:02.457Z,5.97
2022-10-30T12:21:31.541Z,5.43
2022-10-30T12:24:03.364Z,5.43
2022-10-30T12:26:30.563Z,5.18
2022-10-30T12:29:00.966Z,5.38
2022-10-30T12:31:34.037Z,5.65
2022-10-30T12:34:31.732Z,5.32
2022-10-30T12:37:12.619Z,5.53
2022-10-30T12:39:52.637Z,5.43
2022-10-30T12:42:22.957Z,4.95
2022-10-30T12:44:55.880Z,5.72
2022-10-30T12:47:36.056Z,4.85
2022-10-30T12:50:17.094Z,5.10
2022-10-30T12:53:01.513Z,5.43
2022-10-30T12:55:41.384Z,5.63
2022-10-30T12:58:37.697Z,5.35
2022-10-30T13:01:17.239Z,5.30
2022-10-30T13:03:52.027Z,5.82
2022-10-30T13:06:28.861Z,5.18
2022-10-30T13:09:32.381Z,5.18
2022-10-30T13:12:04.093Z,5.25
2022-10-30T13:14:39.542Z,5.45
2022-10-30T13:17:11.578Z,5.50
2022-10-30T13:19:40.844Z,5.82
2022-10-30T13:22:16.638Z,5.65
2022-10-30T13:24:52.734Z,5.63
2022-10-30T13:27:38.687Z,5.30
2022-10-30T13:30:09.069Z,5.18
2022-10-30T13:32:59.035Z,5.13
2022-10-30T13:35:28.395Z,4.90
2022-10-30T13:38:04.605Z,5.78
2022-10-30T13:40:43.271Z,4.88
2022-10-30T13:43:24.855Z,4.65
2022-10-30T13:46:32.749Z,5.35
2022-10-30T13:49:18.881Z,4.80
2022-10-30T13:51:49.358Z,5.60
2022-10-30T13:54:19.528Z,5.88
2022-10-30T13:56:47.763Z,5.25
2022-10-30T13:59:40.550Z,5.40
2022-10-30T14:02:24.990Z,5.60
2022-10-30T14:05:12.977Z,5.13
2022-10-30T14:07:44.562Z,5.82
2022-10-30T14:10:13.978Z,4.82
2022-10-30T14:12:52.907Z,5.18
2022-10-30T14:15:31.148Z,5.18
2022-10-30T14:18:27.872Z,5.70
2022-10-30T14:20:56.880Z,5.82
2022-10-30T14:23:32.907Z,5.10
2022-10-30T14:26:02.161Z,5.22
2022-10-30T14:28:36.239Z,5.15
2022-10-30T14:31:03.447Z,5.07
2022-10-30T14:33:45.512Z,4.70
2022-10-30T14:36:33.675Z,5.53
2022-10-30T14:39:08.968Z,4.90
2022-10-30T14:41:44.352Z,4.53
2022-10-30T14:44:19.617Z,5.15
2022-10-30T14:47:07.794Z,5.47
2022-10-30T14:49:46.432Z,5.38
2022-10-30T14:52:23.427Z,5.43
2022-10-30T14:54:55.634Z,4.97
2022-10-30T14:57:25.804Z,4.88
2022-10-30T15:00:32.498Z,5.20
2022-10-30T15:03:18.811Z,5.90
2022-10-30T15:05:50.853Z,5.45
2022-10-30T15:08:52.597Z,5.13
2022-10-30T15:14:20.808Z,5.55
2022-10-30T15:16:49.649Z,5.32
2022-10-30T15:19:16.462Z,4.63
2022-10-30T15:21:44.622Z,5.85
2022-10-30T15:24:16.865Z,5.57
2022-10-30T15:26:50.081Z,6.03
2022-10-30T15:29:34.238Z,5.90
2022-10-30T15:32:20.321Z,5.75
2022-10-30T15:35:01.103Z,5.60
2022-10-30T15:37:27.801Z,5.93
2022-10-30T15:40:19.555Z,5.80
2022-10-30T15:42:49.639Z,5.65
2022-10-30T15:45:19.694Z,5.65
2022-10-30T15:47:48.483Z,6.03
2022-10-30T15:50:16.243Z,6.95
2022-10-30T15:52:44.112Z,5.68
2022-10-30T15:55:15.553Z,5.55
2022-10-30T16:00:36.738Z,5.93
2022-10-30T16:05:30.933Z,6.40
2022-10-30T16:07:59.057Z,6.18
2022-10-30T16:10:33.022Z,6.50
2022-10-30T16:13:00.144Z,6.15
2022-10-30T16:15:39.203Z,6.50
2022-10-30T16:18:26.985Z,6.07
2022-10-30T16:20:55.851Z,7.05
2022-10-30T16:23:22.909Z,6.88
2022-10-30T16:25:54.734Z,7.15
2022-10-30T16:28:29.654Z,7.15
2022-10-30T16:30:58.100Z,6.95
2022-10-30T16:33:26.882Z,7.88
2022-10-30T16:35:55.792Z,7.60
2022-10-30T16:38:24.726Z,7.22
2022-10-30T16:40:51.557Z,7.85
2022-10-30T16:43:27.647Z,7.10
2022-10-30T16:45:55.044Z,7.63
2022-10-30T16:48:35.404Z,8.10
2022-10-30T16:51:03.069Z,7.90
2022-10-30T16:53:30.391Z,8.15
2022-10-30T16:55:57.927Z,7.50
2022-10-30T16:58:28.255Z,7.32
2022-10-30T17:00:57.530Z,8.73
2022-10-30T17:03:26.431Z,7.72
2022-10-30T17:05:58.386Z,8.05
2022-10-30T17:08:30.819Z,8.55
2022-10-30T17:10:59.727Z,7.35
2022-10-30T17:13:42.889Z,8.10
2022-10-30T17:16:21.840Z,7.65
2022-10-30T17:18:52.443Z,8.02
2022-10-30T17:21:22.888Z,8.73
2022-10-30T17:23:51.527Z,7.53
2022-10-30T17:26:18.919Z,8.25
2022-10-30T17:28:46.396Z,9.25
2022-10-30T17:31:18.852Z,7.50
2022-10-30T17:33:46.176Z,8.85
2022-10-30T17:36:13.383Z,8.23
2022-10-30T17:38:40.217Z,8.55
2022-10-30T17:41:08.175Z,8.07
2022-10-30T17:43:46.680Z,8.18
2022-10-30T17:46:19.121Z,8.40
2022-10-30T17:48:47.306Z,8.23
2022-10-30T17:51:16.895Z,7.60
2022-10-30T17:53:43.752Z,7.63
2022-10-30T17:56:28.381Z,9.05
2022-10-30T17:58:55.314Z,8.07
2022-10-30T18:01:24.594Z,8.75
2022-10-30T18:03:52.628Z,8.07
2022-10-30T18:06:25.771Z,8.25
2022-10-30T18:08:53.683Z,8.82
2022-10-30T18:11:22.684Z,8.02
2022-10-30T18:13:51.151Z,7.95
2022-10-30T18:16:19.226Z,8.07
2022-10-30T18:18:46.169Z,7.45
2022-10-30T18:21:14.778Z,7.90
2022-10-30T18:23:57.995Z,8.75
2022-10-30T18:26:26.438Z,8.55
2022-10-30T18:28:53.857Z,7.78
2022-10-30T18:31:22.631Z,7.57
2022-10-30T18:33:49.447Z,7.90
2022-10-30T18:36:18.886Z,8.10
2022-10-30T18:38:46.084Z,7.60
2022-10-30T18:41:21.007Z,8.13
2022-10-30T18:43:50.656Z,7.97
2022-10-30T18:46:17.622Z,8.48
2022-10-30T18:48:45.857Z,8.55
2022-10-30T18:51:39.192Z,8.02
2022-10-30T18:54:14.204Z,8.77
2022-10-30T18:56:40.892Z,8.05
2022-10-30T18:59:07.595Z,8.38
2022-10-30T19:01:36.623Z,7.63
2022-10-30T19:04:04.654Z,7.63
2022-10-30T19:06:34.913Z,7.47
2022-10-30T19:09:01.955Z,7.65
2022-10-30T19:11:32.065Z,7.50
2022-10-30T19:13:59.492Z,7.80
2022-10-30T19:16:26.505Z,8.15
2022-10-30T19:18:53.239Z,7.32
2022-10-30T19:21:25.556Z,7.13
2022-10-30T19:23:52.704Z,7.63
2022-10-30T19:26:20.600Z,6.90
2022-10-30T19:28:47.330Z,7.85
2022-10-30T19:31:16.094Z,7.15
2022-10-30T19:33:43.127Z,7.35
2022-10-30T19:36:26.322Z,7.70
2022-10-30T19:38:53.794Z,6.75
2022-10-30T19:41:20.606Z,7.75
2022-10-30T19:43:48.108Z,7.82
2022-10-30T19:46:14.962Z,7.22
2022-10-30T19:48:58.470Z,7.85
2022-10-30T19:51:27.199Z,8.07
2022-10-30T19:53:54.227Z,7.95
2022-10-30T19:56:21.511Z,8.05
2022-10-30T19:58:48.485Z,8.05
2022-10-30T20:01:15.578Z,7.70
2022-10-30T20:03:42.594Z,8.38
2022-10-30T20:06:12.360Z,8.32
2022-10-30T20:08:39.446Z,8.45
2022-10-30T20:11:06.284Z,8.20
2022-10-30T20:13:33.495Z,8.32
2022-10-30T20:16:02.618Z,9.07
2022-10-30T20:18:32.206Z,8.55
2022-10-30T20:21:01.647Z,8.52
2022-10-30T20:23:28.952Z,8.25
2022-10-30T20:26:01.049Z,7.75
2022-10-30T20:28:36.985Z,8.10
2022-10-30T20:31:04.249Z,8.52
2022-10-30T20:33:30.939Z,8.48
2022-10-30T20:35:57.814Z,8.52
2022-10-30T20:38:29.017Z,9.20
2022-10-30T20:40:56.521Z,8.73
2022-10-30T20:43:33.170Z,9.13
2022-10-30T20:46:00.659Z,7.95
2022-10-30T20:48:28.120Z,9.35
2022-10-30T20:50:58.573Z,8.82
2022-10-30T20:53:25.706Z,9.32
2022-10-30T20:55:52.474Z,9.25
2022-10-30T20:58:19.536Z,9.70
2022-10-30T21:00:47.023Z,9.38
2022-10-30T21:03:16.938Z,8.48
2022-10-30T21:05:45.870Z,9.48
2022-10-30T21:08:15.954Z,9.18
2022-10-30T21:10:42.970Z,9.43
2022-10-30T21:13:11.167Z,9.27
2022-10-30T21:15:42.563Z,9.52
2022-10-30T21:20:36.925Z,8.25
2022-10-30T21:23:04.061Z,9.43
2022-10-30T21:25:32.408Z,9.23
2022-10-30T21:27:59.705Z,9.40
2022-10-30T21:30:26.932Z,9.30
2022-10-30T21:32:53.701Z,9.27
2022-10-30T21:35:20.580Z,10.82
2022-10-30T21:37:47.352Z,11.48
2022-10-30T21:40:14.147Z,11.00
2022-10-30T21:42:41.031Z,10.07
2022-10-30T21:45:08.630Z,11.98
2022-10-30T21:47:35.526Z,10.23
2022-10-30T21:50:06.237Z,11.52
2022-10-30T21:52:34.741Z,10.23
2022-10-30T21:55:01.635Z,10.27
2022-10-30T21:57:31.009Z,10.77
2022-10-30T22:00:00.185Z,10.27
2022-10-30T22:02:31.293Z,11.98
2022-10-30T22:04:58.104Z,11.48
2022-10-30T22:07:24.897Z,10.57
2022-10-30T22:09:52.633Z,12.00
2022-10-30T22:12:19.424Z,10.85
2022-10-30T22:14:46.220Z,11.20
2022-10-30T22:17:13.000Z,11.50
2022-10-30T22:19:39.690Z,10.57
2022-10-30T22:22:06.922Z,11.85
2022-10-30T22:24:34.069Z,11.15
2022-10-30T22:27:00.667Z,11.70
2022-10-30T22:29:27.162Z,11.98
2022-10-30T22:31:53.671Z,12.00
2022-10-30T22:34:20.199Z,11.68
2022-10-30T22:36:47.109Z,11.77
2022-10-30T22:39:14.244Z,11.88
2022-10-30T22:41:41.204Z,11.93
2022-10-30T22:44:11.129Z,11.93
2022-10-30T22:46:37.729Z,12.32
2022-10-30T22:49:04.587Z,11.35
2022-10-30T22:51:32.475Z,13.43
2022-10-30T22:54:01.489Z,12.68
2022-10-30T22:56:30.877Z,12.93
2022-10-30T22:59:00.169Z,12.23
2022-10-30T23:01:28.510Z,12.10
2022-10-30T23:03:56.355Z,12.55
2022-10-30T23:06:23.416Z,12.77
2022-10-30T23:08:52.050Z,13.02
2022-10-30T23:11:18.632Z,13.10
2022-10-30T23:13:45.379Z,13.45
2022-10-30T23:16:14.850Z,12.90
2022-10-30T23:18:42.017Z,12.98
2022-10-30T23:21:14.578Z,12.63
2022-10-30T23:23:42.025Z,12.05
2022-10-30T23:26:17.320Z,12.77
2022-10-30T23:28:44.652Z,12.70
2022-10-30T23:31:22.376Z,12.40
2022-10-30T23:33:50.005Z,12.32
2022-10-30T23:36:16.672Z,12.65
2022-10-30T23:38:43.183Z,13.00
2022-10-30T23:41:10.061Z,14.45
2022-10-30T23:43:36.517Z,12.35
2022-10-30T23:46:03.022Z,12.93
2022-10-30T23:48:29.577Z,12.27
2022-10-30T23:50:56.147Z,11.68
2022-10-30T23:53:25.075Z,13.48
2022-10-30T23:55:54.878Z,12.77
2022-10-30T23:58:21.524Z,13.07
